Time;durP1;ratioP1;P1;durP2;ratioP2;P2;SDS_P1;SDS_P2;PMS_P1;PMS_P2;Temp;Humidity;BMP_temperature;BMP_pressure;BME280_temperature;BME280_humidity;BME280_pressure;Samples;Min_cycle;Max_cycle;Signal;HPM_P1;HPM_P2
2022/03/10 00:01:31;;;;;;;30.77;14.50;;;;;;;;;;5090045;28;20035;-75
2022/03/10 00:03:57;;;;;;;28.17;13.30;;;;;;;;;;5079476;28;20074;-75
2022/03/10 00:06:23;;;;;;;29.60;13.65;;;;;;;;;;5074726;28;20025;-75
2022/03/10 00:08:49;;;;;;;29.95;14.20;;;;;;;;;;5074661;28;20074;-75
2022/03/10 00:11:15;;;;;;;28.98;13.65;;;;;;;;;;5074393;28;20048;-75
2022/03/10 00:13:41;;;;;;;27.42;13.13;;;;;;;;;;5074414;28;20379;-75
2022/03/10 00:16:07;;;;;;;32.00;14.85;;;;;;;;;;5074670;28;20029;-75
2022/03/10 00:18:33;;;;;;;28.92;14.43;;;;;;;;;;5074634;28;20108;-75
2022/03/10 00:20:59;;;;;;;28.52;14.98;;;;;;;;;;5074442;28;20031;-76
2022/03/10 00:23:25;;;;;;;29.00;14.02;;;;;;;;;;5093275;28;20024;-75
2022/03/10 00:25:51;;;;;;;29.52;14.18;;;;;;;;;;5094608;28;20043;-75
2022/03/10 00:28:18;;;;;;;27.58;13.45;;;;;;;;;;5094563;28;20423;-75
2022/03/10 00:30:44;;;;;;;28.38;13.48;;;;;;;;;;5094096;28;20031;-75
2022/03/10 00:33:10;;;;;;;25.67;13.27;;;;;;;;;;5094189;28;20470;-75
2022/03/10 00:35:36;;;;;;;30.02;14.05;;;;;;;;;;5094411;28;20059;-75
2022/03/10 00:38:02;;;;;;;28.13;14.30;;;;;;;;;;5094284;28;20020;-76
2022/03/10 00:40:28;;;;;;;31.45;13.80;;;;;;;;;;5094615;28;20028;-75
2022/03/10 00:42:54;;;;;;;25.55;13.50;;;;;;;;;;5094200;28;20439;-75
2022/03/10 00:45:20;;;;;;;24.00;12.85;;;;;;;;;;5094387;28;20414;-75
2022/03/10 00:47:47;;;;;;;30.50;13.73;;;;;;;;;;5094192;28;20036;-75
2022/03/10 00:50:14;;;;;;;33.97;13.60;;;;;;;;;;5094154;28;20027;-75
2022/03/10 00:52:44;;;;;;;26.98;13.15;;;;;;;;;;5094151;28;20028;-76
2022/03/10 00:55:11;;;;;;;23.90;12.98;;;;;;;;;;5093714;28;20044;-75
2022/03/10 00:57:37;;;;;;;29.00;13.60;;;;;;;;;;5093982;28;20020;-76
2022/03/10 01:00:04;;;;;;;29.98;13.70;;;;;;;;;;5092516;28;20016;-76
2022/03/10 01:02:36;;;;;;;27.23;13.95;;;;;;;;;;5093605;28;20016;-76
2022/03/10 01:05:03;;;;;;;25.83;12.70;;;;;;;;;;5094036;28;20036;-75
2022/03/10 01:07:29;;;;;;;28.77;15.10;;;;;;;;;;5093799;28;20043;-75
2022/03/10 01:09:55;;;;;;;25.98;13.30;;;;;;;;;;5093703;28;20374;-78
2022/03/10 01:12:21;;;;;;;27.63;13.70;;;;;;;;;;5093588;28;20029;-75
2022/03/10 01:14:47;;;;;;;27.75;14.30;;;;;;;;;;5093704;28;20072;-77
2022/03/10 01:17:13;;;;;;;24.23;12.52;;;;;;;;;;5092264;28;20320;-76
2022/03/10 01:19:40;;;;;;;27.10;13.70;;;;;;;;;;5084072;28;20426;-76
2022/03/10 01:22:07;;;;;;;25.02;13.55;;;;;;;;;;5081041;28;20089;-76
2022/03/10 01:24:33;;;;;;;29.52;13.77;;;;;;;;;;5093286;28;20020;-76
2022/03/10 01:26:59;;;;;;;29.10;13.30;;;;;;;;;;5093433;28;20127;-77
2022/03/10 01:29:25;;;;;;;29.65;14.90;;;;;;;;;;5093449;28;20032;-77
2022/03/10 01:31:52;;;;;;;27.17;13.93;;;;;;;;;;5093309;28;20043;-77
2022/03/10 01:34:18;;;;;;;30.40;14.18;;;;;;;;;;5093088;28;20032;-77
2022/03/10 01:36:44;;;;;;;31.50;15.05;;;;;;;;;;5093395;28;20103;-76
2022/03/10 01:39:10;;;;;;;28.27;13.20;;;;;;;;;;5093222;28;20104;-76
2022/03/10 01:41:36;;;;;;;29.17;13.55;;;;;;;;;;5093038;28;20103;-77
2022/03/10 01:44:02;;;;;;;33.75;14.00;;;;;;;;;;5093205;28;20028;-77
2022/03/10 01:46:28;;;;;;;26.92;13.60;;;;;;;;;;5093006;28;20065;-77
2022/03/10 01:48:54;;;;;;;27.58;13.60;;;;;;;;;;5072787;28;20031;-76
2022/03/10 01:51:21;;;;;;;26.38;13.48;;;;;;;;;;5072739;28;20029;-76
2022/03/10 01:53:50;;;;;;;28.60;13.73;;;;;;;;;;5072532;28;20028;-76
2022/03/10 01:56:17;;;;;;;25.75;13.02;;;;;;;;;;5072613;28;20021;-76
2022/03/10 01:58:43;;;;;;;29.67;13.85;;;;;;;;;;5072723;28;20031;-76
2022/03/10 02:01:10;;;;;;;27.08;12.95;;;;;;;;;;5072458;28;20025;-76
2022/03/10 02:03:37;;;;;;;26.98;13.10;;;;;;;;;;5072525;28;20093;-76
2022/03/10 02:06:04;;;;;;;29.60;13.43;;;;;;;;;;5072539;28;20044;-76
2022/03/10 02:11:14;;;;;;;30.45;14.07;;;;;;;;;;5072285;28;20043;-76
2022/03/10 02:13:40;;;;;;;24.60;13.35;;;;;;;;;;5071295;28;20072;-76
2022/03/10 02:18:54;;;;;;;29.23;13.60;;;;;;;;;;5075617;28;20035;-76
2022/03/10 02:21:20;;;;;;;30.27;13.63;;;;;;;;;;5092344;28;20089;-76
2022/03/10 02:23:46;;;;;;;32.13;13.90;;;;;;;;;;5092303;28;20032;-76
2022/03/10 02:26:13;;;;;;;26.98;13.25;;;;;;;;;;5092279;28;20028;-77
2022/03/10 02:28:39;;;;;;;28.83;13.60;;;;;;;;;;5092366;28;20036;-76
2022/03/10 02:31:05;;;;;;;24.17;12.73;;;;;;;;;;5090937;28;20066;-76
2022/03/10 02:33:31;;;;;;;28.17;13.45;;;;;;;;;;5104716;28;20069;-76
2022/03/10 02:35:58;;;;;;;26.02;13.13;;;;;;;;;;5112820;28;20098;-76
2022/03/10 02:38:24;;;;;;;29.75;14.10;;;;;;;;;;5101135;28;20023;-76
2022/03/10 02:40:50;;;;;;;30.35;14.05;;;;;;;;;;5092510;28;20081;-76
2022/03/10 02:43:18;;;;;;;31.63;15.05;;;;;;;;;;5092115;28;20028;-76
2022/03/10 02:45:44;;;;;;;36.25;14.23;;;;;;;;;;5092107;28;20099;-76
2022/03/10 02:48:10;;;;;;;29.23;14.32;;;;;;;;;;5092173;28;20122;-76
2022/03/10 02:50:36;;;;;;;26.55;14.25;;;;;;;;;;5092191;28;20527;-77
2022/03/10 02:53:02;;;;;;;29.80;13.95;;;;;;;;;;5092177;28;20449;-77
2022/03/10 02:55:29;;;;;;;29.08;13.43;;;;;;;;;;5091793;28;20115;-77
2022/03/10 02:57:55;;;;;;;26.85;13.48;;;;;;;;;;5090420;28;20420;-76
2022/03/10 03:00:20;;;;;;;28.38;13.82;;;;;;;;;;5091888;28;20024;-77
2022/03/10 03:02:47;;;;;;;30.58;14.23;;;;;;;;;;5092063;28;20039;-76
2022/03/10 03:05:13;;;;;;;30.67;14.30;;;;;;;;;;5091961;28;20032;-76
2022/03/10 03:07:39;;;;;;;27.80;13.95;;;;;;;;;;5092044;28;20032;-76
2022/03/10 03:10:05;;;;;;;25.13;13.02;;;;;;;;;;5091811;28;20077;-76
2022/03/10 03:12:32;;;;;;;30.17;14.80;;;;;;;;;;5091539;28;20043;-76
2022/03/10 03:14:58;;;;;;;28.95;13.52;;;;;;;;;;5091644;28;20040;-76
2022/03/10 03:17:27;;;;;;;24.65;12.90;;;;;;;;;;5091904;28;20443;-76
2022/03/10 03:19:54;;;;;;;27.60;13.63;;;;;;;;;;5091646;28;20017;-76
2022/03/10 03:22:20;;;;;;;29.10;12.98;;;;;;;;;;5091500;28;20060;-76
2022/03/10 03:24:46;;;;;;;30.17;14.35;;;;;;;;;;5093845;28;20043;-76
2022/03/10 03:27:12;;;;;;;28.25;13.55;;;;;;;;;;5095834;28;20081;-76
2022/03/10 03:29:38;;;;;;;30.58;14.15;;;;;;;;;;5095626;28;20077;-76
2022/03/10 03:32:05;;;;;;;29.15;14.60;;;;;;;;;;5095470;28;20443;-76
2022/03/10 03:34:31;;;;;;;29.98;14.07;;;;;;;;;;5095566;28;20043;-77
2022/03/10 03:36:57;;;;;;;29.98;13.30;;;;;;;;;;5095668;28;20076;-77
2022/03/10 03:39:23;;;;;;;28.13;13.98;;;;;;;;;;5095374;28;20036;-77
2022/03/10 03:41:49;;;;;;;27.63;13.88;;;;;;;;;;5095454;28;20036;-76
2022/03/10 03:44:15;;;;;;;28.08;13.55;;;;;;;;;;5095240;28;20028;-76
2022/03/10 03:46:42;;;;;;;29.15;14.45;;;;;;;;;;5095241;28;20103;-76
2022/03/10 03:49:08;;;;;;;27.58;13.27;;;;;;;;;;5095284;28;20584;-76
2022/03/10 03:51:35;;;;;;;25.52;12.77;;;;;;;;;;5095318;28;20028;-77
2022/03/10 03:54:01;;;;;;;27.13;14.15;;;;;;;;;;5094916;28;20085;-76
2022/03/10 03:56:27;;;;;;;28.08;13.70;;;;;;;;;;5095204;28;20431;-76
2022/03/10 03:58:53;;;;;;;27.40;13.35;;;;;;;;;;5095158;28;20393;-76
2022/03/10 04:01:19;;;;;;;29.30;13.68;;;;;;;;;;5095051;28;20028;-77
2022/03/10 04:03:45;;;;;;;27.70;13.45;;;;;;;;;;5095109;28;20028;-76
2022/03/10 04:06:11;;;;;;;32.25;14.25;;;;;;;;;;5093485;28;20024;-77
2022/03/10 04:08:37;;;;;;;29.77;14.15;;;;;;;;;;5095062;28;20101;-77
2022/03/10 04:11:04;;;;;;;30.80;13.55;;;;;;;;;;5094846;28;20028;-77
2022/03/10 04:13:30;;;;;;;29.25;13.65;;;;;;;;;;5094762;28;20509;-77
2022/03/10 04:15:56;;;;;;;28.20;12.82;;;;;;;;;;5095029;28;20047;-77
2022/03/10 04:18:21;;;;;;;28.90;14.38;;;;;;;;;;5095062;28;20055;-76
2022/03/10 04:20:48;;;;;;;29.40;14.18;;;;;;;;;;5094683;28;20056;-76
2022/03/10 04:23:15;;;;;;;31.08;14.45;;;;;;;;;;5094711;28;20419;-76
2022/03/10 04:25:41;;;;;;;37.60;14.50;;;;;;;;;;5094590;28;20084;-76
2022/03/10 04:28:07;;;;;;;30.83;14.43;;;;;;;;;;5094886;28;20020;-76
2022/03/10 04:30:34;;;;;;;28.13;14.35;;;;;;;;;;5094525;28;20047;-76
2022/03/10 04:33:00;;;;;;;31.83;13.55;;;;;;;;;;5102696;28;20026;-77
2022/03/10 04:35:27;;;;;;;32.33;14.55;;;;;;;;;;5113849;28;20469;-77
2022/03/10 04:37:53;;;;;;;31.10;13.88;;;;;;;;;;5107770;28;20028;-77
2022/03/10 04:40:20;;;;;;;28.85;13.32;;;;;;;;;;5094697;28;20039;-77
2022/03/10 04:42:47;;;;;;;31.02;14.75;;;;;;;;;;5094291;28;20028;-76
2022/03/10 04:45:13;;;;;;;28.92;13.95;;;;;;;;;;5094228;28;20031;-77
2022/03/10 04:47:40;;;;;;;29.25;13.48;;;;;;;;;;5094254;28;20032;-76
2022/03/10 04:50:07;;;;;;;28.00;14.23;;;;;;;;;;5094312;28;20043;-77
2022/03/10 04:52:33;;;;;;;28.02;14.65;;;;;;;;;;5094903;28;20024;-77
2022/03/10 04:55:00;;;;;;;34.47;14.07;;;;;;;;;;5094250;28;20083;-77
2022/03/10 04:57:26;;;;;;;29.15;14.07;;;;;;;;;;5094542;28;20089;-77
2022/03/10 04:59:52;;;;;;;33.58;13.77;;;;;;;;;;5094546;28;20103;-77
2022/03/10 05:02:18;;;;;;;31.00;13.82;;;;;;;;;;5094062;28;20032;-77
2022/03/10 05:04:44;;;;;;;29.25;13.57;;;;;;;;;;5094099;28;20024;-77
2022/03/10 05:07:11;;;;;;;29.05;14.73;;;;;;;;;;5094171;28;20020;-77
2022/03/10 05:09:37;;;;;;;29.13;14.60;;;;;;;;;;5093927;28;20024;-77
2022/03/10 05:12:03;;;;;;;29.00;14.18;;;;;;;;;;5093844;28;20485;-77
2022/03/10 05:14:29;;;;;;;33.08;14.10;;;;;;;;;;5093701;28;20028;-77
2022/03/10 05:16:56;;;;;;;32.03;14.13;;;;;;;;;;5093735;28;20123;-76
2022/03/10 05:19:21;;;;;;;29.73;14.10;;;;;;;;;;5093771;28;20324;-77
2022/03/10 05:21:47;;;;;;;31.88;14.25;;;;;;;;;;5093476;28;20031;-77
2022/03/10 05:24:13;;;;;;;33.05;13.93;;;;;;;;;;5093500;28;20062;-77
2022/03/10 05:26:39;;;;;;;32.88;14.02;;;;;;;;;;5093683;28;20032;-77
2022/03/10 05:29:06;;;;;;;32.10;14.48;;;;;;;;;;5093463;28;20103;-77
2022/03/10 05:31:32;;;;;;;29.58;14.48;;;;;;;;;;5093432;28;20496;-77
2022/03/10 05:33:58;;;;;;;31.45;14.48;;;;;;;;;;5093244;28;20028;-77
2022/03/10 05:36:24;;;;;;;33.90;14.60;;;;;;;;;;5093306;28;20480;-77
2022/03/10 05:38:50;;;;;;;29.40;14.65;;;;;;;;;;5093053;28;20096;-77
2022/03/10 05:41:16;;;;;;;29.52;15.35;;;;;;;;;;5093148;28;20187;-77
2022/03/10 05:43:42;;;;;;;26.92;13.80;;;;;;;;;;5093093;28;20470;-77
2022/03/10 05:46:08;;;;;;;34.25;14.80;;;;;;;;;;5093103;28;20045;-77
2022/03/10 05:48:34;;;;;;;30.08;14.57;;;;;;;;;;5075152;28;20040;-76
2022/03/10 05:51:00;;;;;;;30.45;15.18;;;;;;;;;;5072662;28;20509;-77
2022/03/10 05:53:26;;;;;;;29.88;14.63;;;;;;;;;;5072629;28;20064;-77
2022/03/10 05:55:52;;;;;;;30.20;14.77;;;;;;;;;;5072482;28;20045;-77
2022/03/10 05:58:18;;;;;;;27.70;14.25;;;;;;;;;;5072549;28;20040;-76
2022/03/10 06:00:44;;;;;;;30.38;14.32;;;;;;;;;;5072607;28;20463;-76
2022/03/10 06:03:11;;;;;;;34.83;15.38;;;;;;;;;;5072253;28;20110;-76
2022/03/10 06:05:37;;;;;;;37.22;16.50;;;;;;;;;;5072501;28;20497;-76
2022/03/10 06:08:04;;;;;;;36.25;15.43;;;;;;;;;;5072514;28;20056;-76
2022/03/10 06:10:30;;;;;;;33.72;14.82;;;;;;;;;;5072145;28;20031;-76
2022/03/10 06:12:56;;;;;;;36.60;15.52;;;;;;;;;;5072323;28;20085;-77
2022/03/10 06:15:22;;;;;;;28.60;14.40;;;;;;;;;;5072170;28;20060;-77
2022/03/10 06:17:48;;;;;;;30.05;14.73;;;;;;;;;;5070817;28;20124;-77
2022/03/10 06:20:15;;;;;;;33.15;14.63;;;;;;;;;;5070607;28;20013;-77
2022/03/10 06:22:41;;;;;;;31.23;15.10;;;;;;;;;;5084582;28;20024;-77
2022/03/10 06:25:08;;;;;;;32.92;14.90;;;;;;;;;;5090945;28;20028;-77
2022/03/10 06:27:34;;;;;;;31.88;15.40;;;;;;;;;;5092625;28;20347;-77
2022/03/10 06:30:00;;;;;;;34.97;15.25;;;;;;;;;;5092272;28;20047;-77
2022/03/10 06:32:26;;;;;;;33.17;15.38;;;;;;;;;;5092162;28;20048;-77
2022/03/10 06:34:53;;;;;;;32.92;15.95;;;;;;;;;;5092119;28;20051;-77
2022/03/10 06:37:19;;;;;;;36.90;15.45;;;;;;;;;;5092461;28;20458;-77
2022/03/10 06:39:45;;;;;;;33.70;16.17;;;;;;;;;;5092009;28;20028;-76
2022/03/10 06:42:11;;;;;;;34.30;16.58;;;;;;;;;;5092234;28;20466;-77
2022/03/10 06:44:38;;;;;;;34.95;16.95;;;;;;;;;;5092224;28;20102;-77
2022/03/10 06:47:04;;;;;;;32.65;16.38;;;;;;;;;;5087303;28;20161;-77
2022/03/10 06:49:31;;;;;;;43.53;18.95;;;;;;;;;;5071921;28;20459;-76
2022/03/10 06:51:57;;;;;;;34.70;17.85;;;;;;;;;;5071917;28;20039;-77
2022/03/10 06:54:22;;;;;;;35.97;18.15;;;;;;;;;;5072772;28;20045;-77
2022/03/10 06:56:48;;;;;;;32.83;16.65;;;;;;;;;;5091801;28;20461;-77
2022/03/10 06:59:15;;;;;;;34.78;16.50;;;;;;;;;;5091158;28;20028;-77
2022/03/10 07:01:41;;;;;;;33.03;15.55;;;;;;;;;;5091711;28;20020;-77
2022/03/10 07:04:07;;;;;;;35.63;17.50;;;;;;;;;;5091625;28;20012;-77
2022/03/10 07:06:33;;;;;;;35.25;16.55;;;;;;;;;;5091542;28;20031;-77
2022/03/10 07:08:59;;;;;;;31.23;15.70;;;;;;;;;;5088917;28;20028;-77
2022/03/10 07:11:25;;;;;;;33.47;16.00;;;;;;;;;;5091500;28;20521;-77
2022/03/10 07:13:52;;;;;;;36.47;15.98;;;;;;;;;;5091606;28;20099;-77
2022/03/10 07:16:18;;;;;;;42.85;15.80;;;;;;;;;;5091491;28;20059;-77
2022/03/10 07:18:50;;;;;;;34.08;15.48;;;;;;;;;;5091715;28;20493;-76
2022/03/10 07:21:16;;;;;;;;;;;;;;;;;;5091581;28;20113;-77
2022/03/10 07:23:42;;;;;;;37.42;14.65;;;;;;;;;;5089541;28;19970;-77
2022/03/10 07:26:10;;;;;;;28.23;13.93;;;;;;;;;;5090983;28;20034;-77
2022/03/10 07:28:36;;;;;;;30.88;14.00;;;;;;;;;;5088784;28;20035;-77
2022/03/10 07:31:02;;;;;;;28.60;12.90;;;;;;;;;;5090912;28;20024;-77
2022/03/10 07:33:28;;;;;;;34.30;14.35;;;;;;;;;;5090722;28;20039;-77
2022/03/10 07:35:54;;;;;;;29.73;14.00;;;;;;;;;;5090975;28;20031;-77
2022/03/10 07:38:20;;;;;;;27.73;13.32;;;;;;;;;;5090810;28;20052;-77
2022/03/10 07:40:46;;;;;;;33.80;12.90;;;;;;;;;;5091181;28;20023;-77
2022/03/10 07:43:12;;;;;;;26.13;12.90;;;;;;;;;;5090615;28;20103;-77
2022/03/10 07:45:38;;;;;;;27.75;13.32;;;;;;;;;;5090749;28;20020;-77
2022/03/10 07:48:04;;;;;;;30.80;13.45;;;;;;;;;;5090656;28;20044;-76
2022/03/10 07:50:30;;;;;;;25.63;12.70;;;;;;;;;;5090774;28;20093;-77
2022/03/10 07:52:57;;;;;;;25.80;13.45;;;;;;;;;;5090706;28;20466;-77
2022/03/10 07:55:23;;;;;;;27.10;12.50;;;;;;;;;;5090370;28;20086;-77
2022/03/10 07:57:49;;;;;;;25.90;12.55;;;;;;;;;;5090533;28;20153;-75
2022/03/10 08:00:15;;;;;;;26.10;12.90;;;;;;;;;;5090645;28;20012;-76
2022/03/10 08:02:41;;;;;;;26.73;13.88;;;;;;;;;;5090505;28;20069;-76
2022/03/10 08:05:08;;;;;;;21.55;12.13;;;;;;;;;;5090539;28;20032;-76
2022/03/10 08:07:34;;;;;;;31.80;12.80;;;;;;;;;;5090698;28;20053;-76
2022/03/10 08:10:04;;;;;;;25.77;13.20;;;;;;;;;;5090357;28;20037;-76
2022/03/10 08:12:31;;;;;;;24.70;12.85;;;;;;;;;;5093636;28;21255;-76
2022/03/10 08:14:57;;;;;;;23.58;12.60;;;;;;;;;;5091654;28;20133;-76
2022/03/10 08:17:25;;;;;;;28.60;13.43;;;;;;;;;;5094065;28;20024;-76
2022/03/10 08:19:51;;;;;;;25.08;12.73;;;;;;;;;;5093790;28;20339;-76
2022/03/10 08:22:17;;;;;;;28.55;12.15;;;;;;;;;;5093779;28;20016;-76
2022/03/10 08:24:44;;;;;;;23.98;13.05;;;;;;;;;;5093854;28;20020;-76
2022/03/10 08:27:10;;;;;;;26.27;12.90;;;;;;;;;;5093848;28;20022;-76
2022/03/10 08:29:36;;;;;;;26.98;13.20;;;;;;;;;;5093718;28;20103;-76
2022/03/10 08:32:03;;;;;;;35.13;13.32;;;;;;;;;;5094433;28;20020;-76
2022/03/10 08:34:29;;;;;;;25.02;13.25;;;;;;;;;;5093419;28;20461;-76
2022/03/10 08:36:56;;;;;;;27.98;13.88;;;;;;;;;;5093788;28;20024;-76
2022/03/10 08:39:22;;;;;;;25.23;13.05;;;;;;;;;;5093585;28;20449;-76
2022/03/10 08:41:49;;;;;;;27.10;13.20;;;;;;;;;;5093421;28;20036;-76
2022/03/10 08:44:15;;;;;;;25.20;13.60;;;;;;;;;;5093494;28;20384;-76
2022/03/10 08:46:41;;;;;;;23.70;12.73;;;;;;;;;;5093407;28;20020;-76
2022/03/10 08:49:07;;;;;;;23.80;12.15;;;;;;;;;;5093462;28;20759;-77
2022/03/10 08:51:33;;;;;;;26.75;13.70;;;;;;;;;;5093700;28;20024;-76
2022/03/10 08:53:59;;;;;;;29.50;13.55;;;;;;;;;;5093505;28;20044;-76
2022/03/10 08:56:25;;;;;;;28.63;13.13;;;;;;;;;;5093954;28;20020;-77
2022/03/10 08:58:51;;;;;;;27.63;13.68;;;;;;;;;;5093956;28;20024;-77
2022/03/10 09:01:17;;;;;;;31.50;14.50;;;;;;;;;;5093918;28;20363;-76
2022/03/10 09:03:43;;;;;;;25.70;13.93;;;;;;;;;;5093820;28;20047;-77
2022/03/10 09:06:12;;;;;;;27.52;13.82;;;;;;;;;;5093898;28;20027;-77
2022/03/10 09:08:38;;;;;;;24.20;13.98;;;;;;;;;;5093739;28;20031;-76
2022/03/10 09:11:04;;;;;;;29.52;13.52;;;;;;;;;;5093408;28;20389;-77
2022/03/10 09:13:30;;;;;;;25.88;14.65;;;;;;;;;;5093517;28;20149;-77
2022/03/10 09:15:56;;;;;;;32.38;15.00;;;;;;;;;;5091687;28;20500;-76
2022/03/10 09:18:22;;;;;;;31.45;14.32;;;;;;;;;;5097048;28;20026;-77
2022/03/10 09:20:48;;;;;;;27.58;15.30;;;;;;;;;;5090769;28;20036;-77
2022/03/10 09:23:14;;;;;;;27.13;13.63;;;;;;;;;;5092798;28;20065;-77
2022/03/10 09:25:40;;;;;;;27.02;14.32;;;;;;;;;;5093392;28;20038;-77
2022/03/10 09:28:07;;;;;;;29.45;14.60;;;;;;;;;;5093260;28;20035;-77
2022/03/10 09:30:33;;;;;;;25.55;14.35;;;;;;;;;;5093208;28;20032;-76
2022/03/10 09:33:01;;;;;;;32.25;15.90;;;;;;;;;;5092267;28;20052;-77
2022/03/10 09:35:27;;;;;;;28.80;14.63;;;;;;;;;;5093165;28;20039;-76
2022/03/10 09:37:53;;;;;;;29.50;15.00;;;;;;;;;;5093295;28;20046;-74
2022/03/10 09:40:19;;;;;;;28.13;14.48;;;;;;;;;;5093217;28;20063;-75
2022/03/10 09:42:49;;;;;;;33.33;15.15;;;;;;;;;;5093054;28;20043;-73
2022/03/10 09:45:16;;;;;;;28.98;14.90;;;;;;;;;;5093066;28;20020;-73
2022/03/10 09:47:43;;;;;;;29.70;15.48;;;;;;;;;;5092865;28;20024;-73
2022/03/10 09:50:13;;;;;;;36.30;15.45;;;;;;;;;;5091693;28;20050;-73
2022/03/10 09:52:40;;;;;;;30.65;14.77;;;;;;;;;;5093081;28;20036;-72
2022/03/10 09:55:07;;;;;;;34.22;16.05;;;;;;;;;;5092971;28;20175;-73
2022/03/10 09:57:35;;;;;;;31.50;15.45;;;;;;;;;;5091578;28;20020;-73
2022/03/10 10:00:01;;;;;;;33.10;15.15;;;;;;;;;;5092743;28;20027;-71
2022/03/10 10:02:29;;;;;;;35.08;15.45;;;;;;;;;;5091041;28;20013;-70
2022/03/10 10:04:56;;;;;;;30.38;14.93;;;;;;;;;;5092401;28;20053;-70
2022/03/10 10:07:26;;;;;;;25.70;14.45;;;;;;;;;;5090688;28;20477;-70
2022/03/10 10:09:57;;;;;;;27.23;14.10;;;;;;;;;;5092227;28;20032;-73
2022/03/10 10:12:27;;;;;;;27.45;14.65;;;;;;;;;;5093315;28;20043;-75
2022/03/10 10:14:54;;;;;;;32.38;15.43;;;;;;;;;;5092656;28;20042;-74
